Time;durP1;ratioP1;P1;durP2;ratioP2;P2;SDS_P1;SDS_P2;PMS_P1;PMS_P2;Temp;Humidity;BMP_temperature;BMP_pressure;BME280_temperature;BME280_humidity;BME280_pressure;Samples;Min_cycle;Max_cycle;Signal;HPM_P1;HPM_P2
2023/01/28 00:01:43;;;;;;;77.10;26.20;;;;;;;-5.44;100.00;101238.66;106832;1285;58204;-78
2023/01/28 00:04:09;;;;;;;78.00;26.60;;;;;;;-5.43;100.00;101230.66;106807;1285;58074;-78
2023/01/28 00:06:35;;;;;;;80.50;24.50;;;;;;;-5.46;100.00;101233.02;106844;1285;58095;-77
2023/01/28 00:09:00;;;;;;;95.00;26.40;;;;;;;-5.50;100.00;101229.86;106833;1285;58249;-78
2023/01/28 00:11:26;;;;;;;82.10;25.10;;;;;;;-5.51;100.00;101224.85;106857;1285;59161;-77
2023/01/28 00:13:53;;;;;;;72.90;23.50;;;;;;;-5.52;100.00;101227.11;106815;1285;58086;-77
2023/01/28 00:16:19;;;;;;;77.10;25.30;;;;;;;-5.55;100.00;101227.60;106850;1285;58286;-78
2023/01/28 00:18:44;;;;;;;72.80;25.00;;;;;;;-5.61;100.00;101224.04;106840;1285;58016;-77
2023/01/28 00:21:12;;;;;;;76.80;25.00;;;;;;;-5.62;100.00;101221.83;106846;1285;58206;-78
2023/01/28 00:23:39;;;;;;;83.20;25.20;;;;;;;-5.63;100.00;101220.06;106807;1285;58092;-78
2023/01/28 00:26:08;;;;;;;75.00;25.00;;;;;;;-5.68;100.00;101217.35;106441;1286;58240;-78
2023/01/28 00:28:34;;;;;;;75.70;24.40;;;;;;;-5.72;100.00;101216.70;106752;1286;73478;-77
2023/01/28 00:31:29;;;;;;;73.60;24.20;;;;;;;-5.76;100.00;101214.23;106812;1285;58196;-78
2023/01/28 00:33:56;;;;;;;72.80;24.10;;;;;;;-5.78;100.00;101211.10;106268;1291;62643;-77
2023/01/28 00:36:23;;;;;;;78.80;23.20;;;;;;;-5.83;100.00;101212.70;106288;1291;58574;-77
2023/01/28 00:38:54;;;;;;;75.70;24.40;;;;;;;-5.86;100.00;101212.35;106259;1291;73649;-77
2023/01/28 00:41:22;;;;;;;72.60;24.00;;;;;;;-5.89;100.00;101215.18;106243;1291;73433;-78
2023/01/28 00:43:49;;;;;;;67.90;24.40;;;;;;;-5.91;100.00;101213.83;106262;1291;73322;-77
2023/01/28 00:46:15;;;;;;;75.10;24.20;;;;;;;-5.92;100.00;101208.52;106084;1293;60656;-77
2023/01/28 00:48:42;;;;;;;80.60;26.30;;;;;;;-5.95;100.00;101201.61;105944;1294;58134;-78
2023/01/28 00:51:09;;;;;;;72.20;24.80;;;;;;;-5.99;100.00;101193.54;106058;1294;58104;-79
2023/01/28 00:53:37;;;;;;;75.80;24.70;;;;;;;-6.02;100.00;101193.45;105808;1294;72391;-78
2023/01/28 00:56:05;;;;;;;81.60;24.30;;;;;;;-6.03;100.00;101193.58;105908;1294;73513;-78
2023/01/28 00:58:31;;;;;;;76.80;25.10;;;;;;;-6.03;100.00;101190.64;106054;1293;61879;-77
2023/01/28 01:01:05;;;;;;;79.80;25.90;;;;;;;-6.05;100.00;101188.54;106076;1293;58143;-78
2023/01/28 01:03:30;;;;;;;74.20;25.30;;;;;;;-6.08;100.00;101183.01;106000;1294;74077;-77
2023/01/28 01:05:56;;;;;;;73.20;23.50;;;;;;;-6.10;100.00;101181.95;105765;1295;58203;-78
2023/01/28 01:08:33;;;;;;;76.00;25.00;;;;;;;-6.10;100.00;101181.82;105794;1295;58523;-78
2023/01/28 01:10:59;;;;;;;69.60;23.20;;;;;;;-6.12;100.00;101188.48;106300;1288;62161;-78
2023/01/28 01:13:25;;;;;;;76.80;23.50;;;;;;;-6.15;100.00;101189.39;106278;1289;58168;-78
2023/01/28 01:16:07;;;;;;;78.00;23.90;;;;;;;-6.16;100.00;101189.16;106493;1288;58372;-78
2023/01/28 01:18:34;;;;;;;77.00;24.80;;;;;;;-6.18;100.00;101186.29;106709;1285;73758;-77
2023/01/28 01:21:00;;;;;;;75.40;23.80;;;;;;;-6.17;100.00;101184.50;106800;1285;72399;-78
2023/01/28 01:23:27;;;;;;;87.00;25.10;;;;;;;-6.15;100.00;101175.58;106431;1286;61817;-78
2023/01/28 01:25:53;;;;;;;77.90;25.00;;;;;;;-6.15;100.00;101173.66;106776;1285;60139;-78
2023/01/28 01:28:19;;;;;;;79.00;24.70;;;;;;;-6.14;100.00;101170.27;106805;1285;58580;-78
2023/01/28 01:30:45;;;;;;;73.80;24.70;;;;;;;-6.14;100.00;101172.70;106814;1285;58481;-77
2023/01/28 01:33:11;;;;;;;75.30;24.20;;;;;;;-6.15;100.00;101171.02;106750;1285;58271;-78
2023/01/28 01:35:37;;;;;;;79.80;24.30;;;;;;;-6.14;100.00;101167.96;106847;1285;58211;-78
2023/01/28 01:38:02;;;;;;;74.70;24.60;;;;;;;-6.12;100.00;101163.09;106851;1285;58392;-77
2023/01/28 04:59:37;;;;;;;73.90;20.70;;;;;;;-7.17;100.00;101142.21;103607;1283;612763;-77
2023/01/28 05:02:03;;;;;;;67.30;20.00;;;;;;;-6.99;100.00;101144.28;103604;1282;119136;-78
2023/01/28 05:04:29;;;;;;;60.60;19.90;;;;;;;-6.93;100.00;101145.19;103768;1281;60490;-77
2023/01/28 05:06:54;;;;;;;72.10;20.70;;;;;;;-6.91;100.00;101143.40;104097;1285;60396;-77
2023/01/28 05:09:20;;;;;;;103.00;32.00;;;;;;;-6.91;100.00;101142.02;103646;1287;60337;-77
2023/01/28 05:11:45;;;;;;;86.20;28.70;;;;;;;-6.90;100.00;101142.52;103943;1282;63585;-78
2023/01/28 05:14:11;;;;;;;76.70;25.50;;;;;;;-6.89;100.00;101142.96;103566;1288;60474;-77
2023/01/28 05:16:36;;;;;;;80.30;25.60;;;;;;;-6.89;100.00;101139.45;103938;1282;60406;-77
2023/01/28 05:19:02;;;;;;;61.80;22.00;;;;;;;-6.90;100.00;101142.47;103841;1285;60399;-78
2023/01/28 05:21:28;;;;;;;60.70;21.80;;;;;;;-6.89;100.00;101140.86;103535;1291;60491;-77
2023/01/28 05:23:53;;;;;;;64.00;22.60;;;;;;;-6.89;100.00;101138.89;103933;1284;60277;-77
2023/01/28 05:26:19;;;;;;;62.10;21.90;;;;;;;-6.87;100.00;101140.30;103674;1288;60524;-77
2023/01/28 05:28:45;;;;;;;57.10;21.80;;;;;;;-6.87;100.00;101148.82;103857;1285;60418;-79
2023/01/28 05:31:11;;;;;;;61.30;21.30;;;;;;;-6.85;100.00;101152.05;103872;1283;60345;-80
2023/01/28 05:33:37;;;;;;;60.60;20.10;;;;;;;-6.82;100.00;101155.98;103910;1282;60411;-76
2023/01/28 05:36:03;;;;;;;64.40;21.70;;;;;;;-6.82;100.00;101156.98;103844;1282;60368;-77
2023/01/28 05:38:29;;;;;;;60.60;20.40;;;;;;;-6.79;100.00;101160.05;102954;1293;72391;-77
2023/01/28 05:40:54;;;;;;;59.60;20.20;;;;;;;-6.76;100.00;101163.66;103876;1285;60421;-75
2023/01/28 05:43:20;;;;;;;57.90;20.80;;;;;;;-6.72;100.00;101169.21;103971;1282;60408;-77
2023/01/28 05:45:46;;;;;;;58.40;21.20;;;;;;;-6.69;100.00;101170.23;103398;1283;60471;-78
2023/01/28 05:48:13;;;;;;;63.30;21.90;;;;;;;-6.64;100.00;101165.91;103591;1282;60419;-78
2023/01/28 05:50:38;;;;;;;68.20;22.20;;;;;;;-6.58;100.00;101164.84;103943;1283;60352;-77
2023/01/28 05:53:05;;;;;;;60.40;19.10;;;;;;;-6.53;100.00;101163.02;103966;1283;60415;-78
2023/01/28 05:55:31;;;;;;;56.80;17.90;;;;;;;-6.43;100.00;101161.42;103678;1282;60825;-77
2023/01/28 05:57:56;;;;;;;55.10;18.60;;;;;;;-6.22;100.00;101160.44;103557;1286;60404;-78
2023/01/28 06:00:22;;;;;;;51.80;18.40;;;;;;;-6.07;100.00;101155.06;103648;1283;60341;-78
2023/01/28 06:02:50;;;;;;;57.70;17.40;;;;;;;-5.85;100.00;101152.91;103841;1283;60421;-76
2023/01/28 06:05:16;;;;;;;48.10;16.70;;;;;;;-5.49;100.00;101154.52;103746;1282;60412;-78
2023/01/28 06:07:46;;;;;;;46.70;16.30;;;;;;;-5.10;100.00;101150.70;103830;1282;60431;-78
2023/01/28 06:10:13;;;;;;;46.40;14.70;;;;;;;-4.57;100.00;101149.58;103958;1282;74222;-78
2023/01/28 06:12:38;;;;;;;40.30;14.10;;;;;;;-4.13;100.00;101152.80;103916;1285;74775;-78
2023/01/28 06:15:05;;;;;;;42.00;13.80;;;;;;;-4.06;100.00;101149.50;103603;1282;61040;-78
2023/01/28 06:17:30;;;;;;;37.40;13.50;;;;;;;-4.02;100.00;101146.88;103937;1283;60403;-78
2023/01/28 06:19:56;;;;;;;43.90;14.50;;;;;;;-3.74;100.00;101145.50;103859;1282;60406;-78
2023/01/28 06:22:21;;;;;;;43.30;14.40;;;;;;;-3.31;100.00;101145.73;103704;1283;60427;-78
2023/01/28 06:24:47;;;;;;;38.80;13.30;;;;;;;-2.96;100.00;101145.16;103672;1282;60367;-78
2023/01/28 06:27:12;;;;;;;41.10;12.80;;;;;;;-2.61;100.00;101146.44;103628;1286;60379;-78
2023/01/28 06:29:38;;;;;;;41.80;13.50;;;;;;;-2.28;100.00;101147.59;103701;1283;60482;-78
2023/01/28 06:32:04;;;;;;;47.30;13.40;;;;;;;-2.03;100.00;101150.23;103888;1283;60289;-79
2023/01/28 06:34:30;;;;;;;48.30;13.20;;;;;;;-2.18;100.00;101154.26;103842;1286;60313;-78
2023/01/28 06:36:55;;;;;;;44.30;12.20;;;;;;;-1.88;100.00;101150.84;103917;1283;60453;-79
2023/01/28 06:39:21;;;;;;;42.30;12.70;;;;;;;-1.38;100.00;101145.15;103841;1283;60412;-79
2023/01/28 06:41:48;;;;;;;42.80;12.20;;;;;;;-1.12;100.00;101141.76;103480;1289;73582;-79
2023/01/28 06:44:14;;;;;;;32.10;11.70;;;;;;;-0.74;100.00;101139.84;103709;1287;74936;-78
2023/01/28 06:46:39;;;;;;;36.30;12.80;;;;;;;-0.84;100.00;101139.23;103794;1286;60444;-79
2023/01/28 06:49:05;;;;;;;39.30;13.00;;;;;;;-1.16;100.00;101144.31;103922;1282;60855;-79
2023/01/28 06:51:30;;;;;;;39.70;13.20;;;;;;;-1.79;100.00;101150.06;103727;1286;60360;-78
2023/01/28 06:53:56;;;;;;;33.00;12.20;;;;;;;-2.34;100.00;101155.56;103543;1283;60507;-78
2023/01/28 06:59:21;;;;;;;40.80;14.00;;;;;;;-3.15;100.00;101159.55;102816;1295;600950;-77
2023/01/28 07:01:47;;;;;;;38.20;14.50;;;;;;;-3.47;100.00;101158.76;102971;1297;60351;-79
2023/01/28 07:04:12;;;;;;;44.50;15.30;;;;;;;-3.72;100.00;101157.59;103208;1294;60385;-77
2023/01/28 07:06:54;;;;;;;42.80;14.30;;;;;;;-4.03;100.00;101157.79;102815;1294;600095;-78
2023/01/28 07:09:19;;;;;;;52.30;15.90;;;;;;;-4.35;100.00;101157.73;103192;1291;60416;-78
2023/01/28 07:11:45;;;;;;;49.00;15.20;;;;;;;-4.54;100.00;101155.95;103115;1292;60495;-78
2023/01/28 07:14:10;;;;;;;48.40;15.10;;;;;;;-4.75;100.00;101157.95;103160;1295;60294;-78
2023/01/28 07:16:36;;;;;;;55.30;16.80;;;;;;;-4.94;100.00;101164.77;102865;1293;72897;-77
2023/01/28 07:19:01;;;;;;;48.20;15.40;;;;;;;-5.09;100.00;101164.48;102979;1292;60422;-77
2023/01/28 07:21:27;;;;;;;49.40;17.60;;;;;;;-5.15;100.00;101158.77;103144;1287;222438;-79
2023/01/28 07:23:52;;;;;;;62.40;17.10;;;;;;;-5.21;100.00;101161.09;103348;1292;60468;-79
2023/01/28 07:26:18;;;;;;;54.20;16.30;;;;;;;-5.28;100.00;101164.09;103243;1291;60476;-79
2023/01/28 07:28:45;;;;;;;65.70;17.00;;;;;;;-5.32;100.00;101172.95;103415;1292;61862;-79
2023/01/28 07:31:10;;;;;;;61.80;18.70;;;;;;;-5.40;100.00;101166.71;103272;1292;60347;-77
2023/01/28 07:33:36;;;;;;;55.70;17.30;;;;;;;-5.46;100.00;101171.90;102756;1289;60509;-77
2023/01/28 07:36:01;;;;;;;66.20;18.70;;;;;;;-5.48;100.00;101170.70;103003;1293;60668;-80
2023/01/28 07:38:27;;;;;;;56.50;17.30;;;;;;;-5.41;100.00;101164.55;103392;1292;60379;-79
2023/01/28 07:40:53;;;;;;;75.50;19.30;;;;;;;-5.33;100.00;101160.01;103233;1289;60863;-77
2023/01/28 07:43:18;;;;;;;69.30;20.50;;;;;;;-5.33;100.00;101163.55;103298;1292;73795;-78
2023/01/28 07:45:44;;;;;;;58.90;17.00;;;;;;;-5.30;100.00;101168.15;103445;1290;60514;-79
2023/01/28 07:48:12;;;;;;;73.20;19.10;;;;;;;-5.24;100.00;101173.05;103426;1288;60354;-78
2023/01/28 07:50:39;;;;;;;61.70;17.50;;;;;;;-5.23;100.00;101174.17;103395;1289;60491;-78
2023/01/28 07:53:07;;;;;;;69.00;19.30;;;;;;;-5.17;100.00;101168.21;103508;1292;60410;-79
2023/01/28 07:55:34;;;;;;;65.30;19.50;;;;;;;-5.12;100.00;101165.42;103438;1292;71927;-78
2023/01/28 07:58:01;;;;;;;61.20;18.50;;;;;;;-5.07;100.00;101159.58;103262;1289;75741;-78
2023/01/28 08:00:29;;;;;;;53.30;15.60;;;;;;;-5.00;100.00;101159.14;106309;1289;73698;-77
2023/01/28 08:02:56;;;;;;;76.50;17.10;;;;;;;-4.91;100.00;101152.78;106616;1288;63203;-77
2023/01/28 08:05:23;;;;;;;44.60;15.10;;;;;;;-4.80;100.00;101151.02;106677;1288;61465;-77
2023/01/28 08:07:49;;;;;;;47.80;14.10;;;;;;;-4.66;100.00;101149.39;106547;1286;73340;-77
2023/01/28 08:10:18;;;;;;;57.90;15.00;;;;;;;-4.55;100.00;101152.19;106816;1285;58152;-77
2023/01/28 08:12:55;;;;;;;53.80;14.50;;;;;;;-4.53;100.00;101153.42;106497;1286;72399;-77
2023/01/28 08:15:21;;;;;;;64.40;17.10;;;;;;;-4.43;100.00;101155.77;106441;1286;61788;-77
2023/01/28 08:17:47;;;;;;;53.70;15.80;;;;;;;-4.38;100.00;101155.58;106778;1285;58023;-77
2023/01/28 08:20:13;;;;;;;50.30;15.80;;;;;;;-4.32;100.00;101154.15;106824;1285;58072;-77
2023/01/28 08:22:38;;;;;;;48.70;15.10;;;;;;;-4.19;100.00;101154.11;106827;1285;58247;-77
2023/01/28 08:25:05;;;;;;;51.40;14.70;;;;;;;-4.12;100.00;101151.34;106820;1285;58140;-78
2023/01/28 08:27:32;;;;;;;52.80;15.30;;;;;;;-4.04;100.00;101143.77;106151;1286;58296;-77
2023/01/28 08:29:59;;;;;;;43.80;14.20;;;;;;;-4.02;100.00;101145.43;106243;1286;58208;-77
2023/01/28 08:32:25;;;;;;;50.10;15.40;;;;;;;-3.94;100.00;101147.15;106258;1286;58318;-77
2023/01/28 08:35:11;;;;;;;41.10;13.70;;;;;;;-3.99;100.00;101152.36;106713;1286;58079;-77
2023/01/28 08:37:58;;;;;;;41.30;13.00;;;;;;;-3.90;100.00;101148.98;106329;1290;73310;-77
2023/01/28 08:40:23;;;;;;;41.70;12.60;;;;;;;-3.80;100.00;101146.80;106036;1291;61986;-77
2023/01/28 08:42:52;;;;;;;45.60;12.70;;;;;;;-3.78;100.00;101141.46;106186;1291;58439;-77
2023/01/28 08:45:24;;;;;;;42.90;13.50;;;;;;;-3.70;100.00;101141.77;106078;1292;73917;-77
2023/01/28 08:47:56;;;;;;;45.00;12.90;;;;;;;-3.69;100.00;101136.58;106131;1291;71549;-76
2023/01/28 08:50:24;;;;;;;41.10;13.20;;;;;;;-3.60;100.00;101123.84;106166;1291;73623;-77
2023/01/28 08:52:55;;;;;;;44.70;14.50;;;;;;;-3.59;100.00;101117.43;106121;1292;62623;-77
2023/01/28 08:55:42;;;;;;;46.30;14.20;;;;;;;-3.59;100.00;101121.21;105920;1292;59070;-77
2023/01/28 08:58:14;;;;;;;50.30;15.00;;;;;;;-3.54;100.00;101119.08;106138;1293;74131;-77
2023/01/28 09:00:43;;;;;;;46.30;13.30;;;;;;;-3.56;100.00;101113.46;106031;1292;74420;-77
2023/01/28 09:03:09;;;;;;;45.20;14.30;;;;;;;-3.54;100.00;101111.20;106138;1293;73559;-77
2023/01/28 09:06:04;;;;;;;43.50;14.20;;;;;;;-3.53;100.00;101105.98;105751;1295;62358;-77
2023/01/28 09:08:30;;;;;;;42.70;13.30;;;;;;;-3.43;100.00;101107.06;105638;1292;60180;-77
2023/01/28 09:10:58;;;;;;;51.60;13.60;;;;;;;-3.42;100.00;101098.38;106258;1291;58321;-77
2023/01/28 09:13:26;;;;;;;45.60;14.00;;;;;;;-3.33;100.00;101094.64;105804;1291;73311;-77
2023/01/28 09:15:51;;;;;;;41.50;12.90;;;;;;;-3.25;100.00;101090.52;106222;1291;72552;-77
2023/01/28 09:18:37;;;;;;;41.00;13.10;;;;;;;-3.18;100.00;101083.64;106022;1294;60674;-77
2023/01/28 09:21:07;;;;;;;42.60;12.80;;;;;;;-3.07;100.00;101081.77;105893;1293;59284;-77
2023/01/28 09:23:55;;;;;;;41.40;12.70;;;;;;;-3.02;100.00;101079.52;105492;1299;72744;-77
2023/01/28 09:26:21;;;;;;;43.30;13.50;;;;;;;-2.88;100.00;101078.02;105353;1302;73173;-77
2023/01/28 09:28:48;;;;;;;40.20;12.50;;;;;;;-2.82;100.00;101077.98;105346;1302;58694;-77
2023/01/28 09:31:15;;;;;;;38.60;13.20;;;;;;;-2.73;100.00;101079.85;105358;1302;58176;-77
2023/01/28 09:33:40;;;;;;;42.90;12.90;;;;;;;-2.63;100.00;101077.96;105281;1302;58284;-77
2023/01/28 09:36:27;;;;;;;47.60;13.40;;;;;;;-2.69;100.00;101080.09;105351;1302;71695;-77
2023/01/28 09:39:13;;;;;;;42.20;13.50;;;;;;;-2.66;100.00;101078.23;105437;1302;74120;-77
2023/01/28 09:42:02;;;;;;;45.80;13.70;;;;;;;-2.63;100.00;101080.87;105142;1303;72583;-77
2023/01/28 09:44:45;;;;;;;47.80;14.00;;;;;;;-2.52;100.00;101076.86;105283;1303;61045;-77
2023/01/28 09:47:26;;;;;;;47.40;13.80;;;;;;;-2.46;100.00;101071.17;105329;1303;61051;-77
2023/01/28 09:49:57;;;;;;;45.80;14.20;;;;;;;-2.41;100.00;101065.20;105269;1300;72253;-77
2023/01/28 09:52:47;;;;;;;43.80;14.70;;;;;;;-2.36;100.00;101061.61;105383;1300;74717;-78
2023/01/28 09:55:43;;;;;;;45.70;14.20;;;;;;;-2.34;100.00;101055.84;105401;1297;70700;-77
2023/01/28 09:58:12;;;;;;;44.20;13.10;;;;;;;-2.27;100.00;101053.52;105790;1296;63041;-77
2023/01/28 10:00:45;;;;;;;41.60;13.60;;;;;;;-2.27;100.00;101055.25;105694;1296;60741;-77
2023/01/28 10:03:31;;;;;;;;;;;;;;;-2.25;100.00;101053.15;105697;1298;72809;-77
2023/01/28 10:06:32;;;;;;;58.50;16.50;;;;;;;-2.26;100.00;101053.37;105693;1295;74492;-77
2023/01/28 10:09:57;;;;;;;43.60;14.70;;;;;;;-2.19;100.00;101052.82;105902;1291;72619;-77
2023/01/28 10:12:57;;;;;;;48.00;14.60;;;;;;;-2.04;100.00;101052.05;105515;1297;62871;-77
2023/01/28 10:15:53;;;;;;;49.60;15.10;;;;;;;-1.97;100.00;101042.75;105567;1298;58212;-76
2023/01/28 10:18:31;;;;;;;39.70;12.60;;;;;;;-1.93;100.00;101042.77;105698;1298;74285;-77
2023/01/28 10:21:13;;;;;;;41.80;13.80;;;;;;;-1.93;100.00;101039.48;105497;1299;73443;-77
2023/01/28 10:23:57;;;;;;;41.80;13.00;;;;;;;-1.85;100.00;101034.02;105543;1299;73653;-78
2023/01/28 14:04:55;;;;;;;33.60;12.10;;;;;;;-1.86;100.00;100980.42;103580;1283;612978;-80
2023/01/28 14:07:42;;;;;;;35.00;13.30;;;;;;;-1.77;100.00;100982.72;103521;1288;146938;-81
2023/01/28 14:10:10;;;;;;;37.60;13.80;;;;;;;-1.80;100.00;100986.79;104101;1283;60395;-80
2023/01/28 14:13:04;;;;;;;40.20;14.50;;;;;;;-1.84;100.00;100987.36;104046;1285;72567;-80
2023/01/28 14:15:57;;;;;;;39.00;13.80;;;;;;;-1.86;100.00;100987.40;104045;1283;74917;-80
2023/01/28 14:18:42;;;;;;;37.80;12.00;;;;;;;-1.87;100.00;100983.52;104042;1282;74045;-81
2023/01/28 14:24:16;;;;;;;37.80;12.50;;;;;;;-1.82;100.00;100981.17;103578;1283;600921;-81
2023/01/28 14:26:45;;;;;;;37.70;11.90;;;;;;;-1.83;100.00;100980.27;103710;1285;62326;-81
2023/01/28 14:29:25;;;;;;;31.10;10.90;;;;;;;-1.80;100.00;100982.02;103591;1285;61570;-80
2023/01/28 14:31:53;;;;;;;37.80;13.10;;;;;;;-1.79;100.00;100983.91;103600;1285;73473;-81
2023/01/28 14:34:32;;;;;;;36.50;12.50;;;;;;;-1.82;100.00;100978.52;103441;1285;73842;-80
2023/01/28 14:40:29;;;;;;;33.00;11.10;;;;;;;-1.75;100.00;100991.41;102847;1291;600857;-81
2023/01/28 14:42:57;;;;;;;30.30;11.20;;;;;;;-1.74;100.00;100995.50;103159;1292;60421;-81
2023/01/28 14:45:44;;;;;;;33.20;11.40;;;;;;;-1.77;100.00;101001.31;103023;1291;60375;-81
2023/01/28 14:48:18;;;;;;;27.30;11.10;;;;;;;-1.76;100.00;101005.40;103169;1294;74015;-80
2023/01/28 14:50:59;;;;;;;29.70;11.20;;;;;;;-1.74;100.00;101012.23;103169;1294;74730;-80
2023/01/28 14:53:50;;;;;;;31.90;11.20;;;;;;;-1.70;100.00;101012.95;102955;1289;245787;-81
2023/01/28 14:56:21;;;;;;;34.30;12.50;;;;;;;-1.69;100.00;101013.50;103047;1291;62355;-80
2023/01/28 14:59:01;;;;;;;33.80;12.50;;;;;;;-1.67;100.00;101015.64;102781;1289;60881;-80
2023/01/28 15:01:29;;;;;;;35.20;11.70;;;;;;;-1.64;100.00;101018.09;103062;1291;73670;-81
2023/01/28 15:03:56;;;;;;;32.70;10.70;;;;;;;-1.61;100.00;101017.05;103356;1289;74376;-81
2023/01/28 15:06:24;;;;;;;32.80;10.80;;;;;;;-1.60;100.00;101022.04;103484;1289;60369;-80
2023/01/28 15:08:51;;;;;;;31.80;11.10;;;;;;;-1.62;100.00;101029.32;103264;1289;62092;-81
2023/01/28 15:11:22;;;;;;;32.60;11.50;;;;;;;-1.61;100.00;101030.96;103022;1291;61841;-81
2023/01/28 15:13:53;;;;;;;32.80;11.20;;;;;;;-1.60;100.00;101030.54;103173;1289;74328;-79
2023/01/28 15:16:30;;;;;;;32.40;10.60;;;;;;;-1.62;100.00;101037.04;103367;1288;73954;-81
2023/01/28 15:18:59;;;;;;;30.30;10.90;;;;;;;-1.61;100.00;101035.42;103330;1291;73088;-81
2023/01/28 15:21:28;;;;;;;32.80;11.70;;;;;;;-1.62;100.00;101035.52;103187;1289;63381;-81
2023/01/28 15:23:59;;;;;;;32.80;11.20;;;;;;;-1.61;100.00;101037.17;103151;1290;60358;-81
2023/01/28 15:26:28;;;;;;;37.30;11.40;;;;;;;-1.62;100.00;101038.82;103286;1289;73542;-81
2023/01/28 15:28:55;;;;;;;32.90;11.10;;;;;;;-1.59;100.00;101045.05;103418;1291;75158;-81
2023/01/28 15:34:59;;;;;;;37.70;13.00;;;;;;;-1.54;100.00;101047.52;102933;1293;601291;-81
2023/01/28 15:37:27;;;;;;;41.60;12.70;;;;;;;-1.55;100.00;101050.56;103326;1290;62286;-81
2023/01/28 15:43:49;;;;;;;35.80;12.00;;;;;;;-1.48;100.00;101045.95;103623;1283;616610;-79
2023/01/28 15:46:32;;;;;;;38.30;12.40;;;;;;;-1.44;100.00;101046.70;103044;1294;601232;-80
2023/01/28 15:49:01;;;;;;;31.50;11.30;;;;;;;-1.49;100.00;101050.96;103389;1289;60415;-81
2023/01/28 15:51:50;;;;;;;30.20;11.00;;;;;;;-1.46;100.00;101050.35;103106;1295;599973;-80
2023/01/28 15:57:42;;;;;;;34.80;11.50;;;;;;;-1.51;100.00;101052.77;103038;1294;599429;-80
2023/01/28 16:00:18;;;;;;;34.80;11.20;;;;;;;-1.53;100.00;101057.04;103333;1295;60418;-81
2023/01/28 16:03:07;;;;;;;28.70;10.90;;;;;;;-1.49;100.00;101054.55;103294;1284;600487;-80
2023/01/28 16:09:15;;;;;;;29.80;11.00;;;;;;;-1.43;100.00;101057.23;103295;1287;600825;-80
2023/01/28 16:15:05;;;;;;;33.10;11.50;;;;;;;-1.41;100.00;101056.98;103888;1279;600204;-80
2023/01/28 16:17:39;;;;;;;33.50;11.10;;;;;;;-1.43;100.00;101058.02;103664;1284;61739;-80
2023/01/28 16:20:21;;;;;;;29.50;10.80;;;;;;;-1.42;100.00;101054.50;103561;1289;60687;-81
2023/01/28 16:22:53;;;;;;;35.90;11.90;;;;;;;-1.40;100.00;101060.92;103643;1283;72411;-80
2023/01/28 16:25:31;;;;;;;32.90;11.50;;;;;;;-1.46;100.00;101058.77;106547;1283;75288;-81
2023/01/28 16:28:01;;;;;;;40.30;13.00;;;;;;;-1.47;100.00;101062.38;105888;1281;1297728;-81
2023/01/28 16:30:32;;;;;;;34.90;12.40;;;;;;;-1.44;100.00;101061.15;106948;1281;61907;-81
2023/01/28 16:32:59;;;;;;;33.30;12.10;;;;;;;-1.41;100.00;101063.80;107137;1281;59679;-83
2023/01/28 16:35:28;;;;;;;35.40;12.30;;;;;;;-1.39;100.00;101062.35;106596;1281;73082;-81
2023/01/28 16:38:02;;;;;;;35.40;12.20;;;;;;;-1.37;100.00;101059.87;106596;1284;72314;-82
2023/01/28 16:40:31;;;;;;;40.40;12.70;;;;;;;-1.37;100.00;101064.06;106420;1289;73607;-81
2023/01/28 16:42:56;;;;;;;39.20;13.60;;;;;;;-1.36;100.00;101062.93;106349;1289;61819;-80
2023/01/28 16:45:24;;;;;;;31.00;11.90;;;;;;;-1.33;100.00;101062.09;106296;1289;58719;-81
2023/01/28 16:47:55;;;;;;;33.40;12.10;;;;;;;-1.33;100.00;101059.48;106158;1290;72629;-81
2023/01/28 16:50:21;;;;;;;30.60;11.70;;;;;;;-1.32;100.00;101054.39;106174;1290;74638;-81
2023/01/28 16:52:53;;;;;;;35.20;11.60;;;;;;;-1.28;100.00;101053.83;106152;1291;58407;-81
2023/01/28 16:55:20;;;;;;;36.50;12.50;;;;;;;-1.26;100.00;101050.80;106211;1289;61151;-81
2023/01/28 16:57:51;;;;;;;40.40;14.00;;;;;;;-1.28;100.00;101046.92;106431;1288;61150;-80
2023/01/28 17:00:24;;;;;;;37.30;12.90;;;;;;;-1.27;100.00;101047.50;106040;1293;74002;-81
2023/01/28 17:02:50;;;;;;;40.60;14.00;;;;;;;-1.27;100.00;101045.59;106045;1293;73231;-81
2023/01/28 17:05:16;;;;;;;38.20;13.20;;;;;;;-1.25;100.00;101045.75;105901;1293;72940;-81
2023/01/28 17:07:42;;;;;;;35.50;12.90;;;;;;;-1.23;100.00;101050.80;106120;1293;58301;-81
2023/01/28 17:10:09;;;;;;;38.70;13.20;;;;;;;-1.23;100.00;101046.86;106265;1289;58285;-81
2023/01/28 17:12:36;;;;;;;40.10;12.90;;;;;;;-1.23;100.00;101048.61;106202;1289;58304;-81
2023/01/28 17:15:08;;;;;;;40.40;13.50;;;;;;;-1.21;100.00;101045.80;106299;1290;58140;-81
2023/01/28 17:18:24;;;;;;;36.60;12.60;;;;;;;-1.22;100.00;101039.77;106016;1292;72665;-80
2023/01/28 17:21:06;;;;;;;39.70;14.20;;;;;;;-1.22;100.00;101040.81;105489;1299;62324;-81
2023/01/28 17:23:33;;;;;;;39.20;13.60;;;;;;;-1.20;100.00;101035.77;105388;1302;58107;-80
2023/01/28 17:26:06;;;;;;;39.60;12.90;;;;;;;-1.20;100.00;101039.71;105425;1299;58169;-81
2023/01/28 17:28:35;;;;;;;36.50;13.00;;;;;;;-1.20;100.00;101037.16;105528;1299;72503;-81
2023/01/28 17:31:10;;;;;;;44.30;13.80;;;;;;;-1.19;100.00;101036.34;105579;1296;71652;-81
2023/01/28 17:33:36;;;;;;;36.60;13.30;;;;;;;-1.17;100.00;101032.77;105822;1295;62059;-81
2023/01/28 17:36:04;;;;;;;40.30;13.40;;;;;;;-1.14;100.00;101031.79;105809;1293;58541;-81
2023/01/28 17:38:50;;;;;;;41.40;13.80;;;;;;;-1.15;100.00;101027.29;106059;1290;73694;-81
2023/01/28 17:41:19;;;;;;;33.90;12.70;;;;;;;-1.16;100.00;101024.39;105963;1293;74832;-80
2023/01/28 17:43:55;;;;;;;35.00;14.20;;;;;;;-1.13;100.00;101022.49;106017;1293;72380;-81
2023/01/28 17:46:22;;;;;;;39.90;15.20;;;;;;;-1.12;100.00;101021.85;105990;1293;61927;-80
2023/01/28 17:48:48;;;;;;;45.40;14.70;;;;;;;-1.13;100.00;101017.16;105683;1291;60612;-81
2023/01/28 17:51:33;;;;;;;39.30;13.90;;;;;;;-1.10;100.00;101016.94;105988;1293;71686;-80
2023/01/28 17:53:59;;;;;;;50.60;15.10;;;;;;;-1.11;100.00;101017.72;105791;1292;58418;-81
2023/01/28 17:56:27;;;;;;;45.70;14.60;;;;;;;-1.08;100.00;101013.52;105924;1292;58385;-81
2023/01/28 17:59:02;;;;;;;38.20;14.20;;;;;;;-1.09;100.00;101010.57;106216;1287;58331;-81
2023/01/28 18:01:29;;;;;;;39.30;14.30;;;;;;;-1.09;100.00;101007.40;106628;1285;60478;-81
2023/01/28 18:03:57;;;;;;;38.60;14.10;;;;;;;-1.09;100.00;101005.08;106732;1285;72490;-81
2023/01/28 18:07:09;;;;;;;34.40;13.10;;;;;;;-1.06;100.00;101005.30;106135;1291;72750;-80
2023/01/28 18:09:38;;;;;;;37.20;12.50;;;;;;;-1.04;100.00;101001.40;106016;1293;73603;-79
2023/01/28 18:12:09;;;;;;;36.70;13.40;;;;;;;-1.06;100.00;100998.64;105853;1291;60662;-79
2023/01/28 18:14:38;;;;;;;35.10;13.40;;;;;;;-1.01;100.00;101003.85;106100;1291;61655;-79
2023/01/28 18:17:07;;;;;;;39.50;13.10;;;;;;;-1.00;100.00;101003.63;106099;1293;71632;-80
2023/01/28 18:19:37;;;;;;;40.80;13.70;;;;;;;-1.00;100.00;101000.80;106218;1290;74193;-80
2023/01/28 18:22:03;;;;;;;39.80;12.40;;;;;;;-1.01;100.00;100996.73;106210;1289;72610;-80
2023/01/28 18:24:29;;;;;;;38.90;13.80;;;;;;;-0.99;100.00;100993.27;106199;1290;58470;-80
2023/01/28 18:26:59;;;;;;;37.20;13.60;;;;;;;-0.97;100.00;100992.68;106430;1288;58161;-80
2023/01/28 18:29:29;;;;;;;37.00;12.40;;;;;;;-0.95;100.00;100990.82;106137;1289;73995;-80
2023/01/28 18:31:58;;;;;;;33.20;11.50;;;;;;;-0.95;100.00;100992.34;106107;1291;74234;-80
2023/01/28 18:34:30;;;;;;;39.30;13.00;;;;;;;-0.92;100.00;100988.20;106191;1289;72470;-78
2023/01/28 18:37:06;;;;;;;33.20;12.50;;;;;;;-0.91;100.00;100989.52;106376;1287;62211;-77